Time;durP1;ratioP1;P1;durP2;ratioP2;P2;SDS_P1;SDS_P2;PMS_P1;PMS_P2;Temp;Humidity;BMP_temperature;BMP_pressure;BME280_temperature;BME280_humidity;BME280_pressure;Samples;Min_cycle;Max_cycle;Signal;HPM_P1;HPM_P2
2021/10/02 00:57:05;;;;;;;;;;;256.30;2252.80;;;;;;4842925;29;20110;-88
2021/10/02 01:00:45;;;;;;;17.27;11.68;;;256.20;2252.80;;;;;;4860714;29;19912;-89
2021/10/02 01:15:03;;;;;;;22.25;11.98;;;231.10;2252.80;;;;;;4809204;29;20038;-88
2021/10/02 01:21:52;;;;;;;24.05;12.52;;;231.00;2252.80;;;;;;4822532;29;20030;-88
2021/10/02 01:25:31;;;;;;;21.88;13.70;;;230.90;2252.80;;;;;;4827552;29;20113;-90
2021/10/02 01:32:33;;;;;;;17.85;13.05;;;231.10;2252.80;;;;;;4812695;29;20067;-88
2021/10/02 01:56:55;;;;;;;30.45;12.63;;;231.10;2252.80;;;;;;4816522;29;20298;-89
2021/10/02 02:06:50;;;;;;;21.23;12.73;;;230.70;2252.80;;;;;;4804618;29;20048;-88
2021/10/02 02:10:19;;;;;;;21.52;13.20;;;230.70;2252.80;;;;;;4805633;29;20035;-86
2021/10/02 02:17:05;;;;;;;19.23;12.05;;;230.60;2252.80;;;;;;4792803;29;20034;-88
2021/10/02 02:24:12;;;;;;;21.73;11.60;;;230.70;2252.80;;;;;;4790824;29;20050;-87
2021/10/02 02:34:11;;;;;;;19.95;13.52;;;231.10;2252.80;;;;;;4773604;30;20034;-89
2021/10/02 02:37:13;;;;;;;21.65;13.70;;;230.70;2252.80;;;;;;4811148;29;20081;-90
2021/10/02 02:43:32;;;;;;;21.83;12.10;;;230.60;2252.80;;;;;;4828311;29;20046;-89
2021/10/02 02:46:37;;;;;;;20.90;11.68;;;230.60;2252.80;;;;;;4813310;29;20047;-88
2021/10/02 02:49:55;;;;;;;22.20;11.83;;;205.70;2252.80;;;;;;4836386;29;20073;-89
2021/10/02 02:52:58;;;;;;;19.60;12.20;;;230.40;2252.80;;;;;;4799643;29;20047;-87
2021/10/02 02:56:31;;;;;;;17.17;11.95;;;205.60;2252.80;;;;;;4812492;29;20038;-87
2021/10/02 03:03:12;;;;;;;19.95;13.45;;;230.40;2252.80;;;;;;4942844;29;20042;-87
2021/10/02 03:07:00;;;;;;;22.25;11.82;;;205.70;2252.80;;;;;;4942872;29;20053;-88
2021/10/02 03:10:04;;;;;;;18.45;11.93;;;205.70;2252.80;;;;;;4905098;29;20092;-87
2021/10/02 03:13:18;;;;;;;17.00;11.55;;;205.50;2252.80;;;;;;4848881;29;20444;-87
2021/10/02 03:16:06;;;;;;;20.45;12.68;;;205.50;2252.80;;;;;;4825281;29;20050;-87
2021/10/02 03:19:20;;;;;;;20.15;13.52;;;205.30;2252.80;;;;;;4848720;29;20034;-87
2021/10/02 03:22:14;;;;;;;18.75;12.07;;;205.20;2252.80;;;;;;4833118;29;20022;-88
2021/10/02 03:28:02;;;;;;;22.20;13.07;;;205.30;2252.80;;;;;;4906684;29;20477;-88
2021/10/02 03:31:09;;;;;;;19.48;13.18;;;204.80;2252.80;;;;;;4908190;29;20097;-87
2021/10/02 03:34:05;;;;;;;21.10;12.00;;;205.20;2252.80;;;;;;4938018;29;20099;-89
2021/10/02 03:36:34;;;;;;;21.80;11.82;;;205.20;2252.80;;;;;;4929641;29;20055;-89
2021/10/02 03:39:30;;;;;;;26.23;12.43;;;204.90;2252.80;;;;;;4930140;28;20135;-89
2021/10/02 03:42:21;;;;;;;17.88;11.10;;;205.00;2252.80;;;;;;5005856;28;20081;-87
2021/10/02 03:45:19;;;;;;;19.50;12.23;;;205.30;2252.80;;;;;;5003850;28;20053;-88
2021/10/02 03:47:57;;;;;;;21.77;12.80;;;205.10;2252.80;;;;;;5004642;28;20386;-88
2021/10/02 03:50:31;;;;;;;23.67;12.60;;;205.20;2252.80;;;;;;5002830;28;20042;-87
2021/10/02 03:53:09;;;;;;;18.00;11.48;;;205.30;2252.80;;;;;;5003790;28;20206;-88
2021/10/02 03:56:20;;;;;;;21.50;12.48;;;205.50;2252.80;;;;;;5002341;28;20414;-87
2021/10/02 03:59:26;;;;;;;23.75;12.40;;;205.10;2252.80;;;;;;5003559;28;20497;-88
2021/10/02 04:02:31;;;;;;;16.42;11.52;;;205.00;2252.80;;;;;;5004950;28;20035;-87
2021/10/02 04:09:24;;;;;;;18.50;10.27;;;205.10;2252.80;;;;;;5006665;28;20080;-89
2021/10/02 04:12:11;;;;;;;23.05;12.55;;;205.20;2252.80;;;;;;5004647;28;20031;-87
2021/10/02 04:18:06;;;;;;;16.80;10.60;;;205.00;2252.80;;;;;;5004493;28;20045;-87
2021/10/02 04:28:16;;;;;;;20.40;13.77;;;204.90;2252.80;;;;;;4989383;28;20041;-88
2021/10/02 04:34:30;;;;;;;19.75;11.60;;;204.80;2252.80;;;;;;5006339;28;20090;-86
2021/10/02 04:37:15;;;;;;;21.63;11.75;;;204.80;2252.80;;;;;;4988906;28;20035;-86
2021/10/02 04:39:59;;;;;;;27.58;12.73;;;179.70;2252.80;;;;;;5003800;28;20065;-87
2021/10/02 04:42:53;;;;;;;20.17;12.13;;;204.80;2252.80;;;;;;5000761;28;20042;-87
2021/10/02 04:45:25;;;;;;;22.40;12.52;;;204.90;2252.80;;;;;;5000209;28;20106;-87
2021/10/02 04:48:33;;;;;;;18.58;12.05;;;180.10;2252.80;;;;;;5000510;28;20502;-86
2021/10/02 04:54:06;;;;;;;24.65;13.75;;;179.60;2252.80;;;;;;4991372;28;20045;-88
2021/10/02 04:56:56;;;;;;;24.48;13.82;;;179.80;2252.80;;;;;;4988164;28;20042;-87
2021/10/02 04:59:59;;;;;;;29.92;14.38;;;179.80;2252.80;;;;;;5004129;28;20022;-86
2021/10/02 05:03:05;;;;;;;23.38;14.32;;;179.90;2252.80;;;;;;4999720;28;20030;-86
2021/10/02 05:06:04;;;;;;;24.05;14.20;;;204.80;2252.80;;;;;;5002691;28;20026;-88
2021/10/02 05:12:25;;;;;;;27.15;15.00;;;180.10;2252.80;;;;;;5004918;28;20114;-86
2021/10/02 05:43:58;;;;;;;28.58;16.85;;;204.90;2252.80;;;;;;4909855;29;20027;-88
2021/10/02 05:57:19;;;;;;;28.92;16.98;;;205.30;2252.80;;;;;;4979325;28;20442;-87
2021/10/02 06:22:10;;;;;;;20.85;12.23;;;205.50;2252.80;;;;;;4991120;28;20406;-88
2021/10/02 06:25:12;;;;;;;19.70;11.85;;;205.70;2252.80;;;;;;5007165;28;20038;-89
2021/10/02 06:28:02;;;;;;;17.60;12.63;;;205.70;2252.80;;;;;;5010179;28;20034;-88
2021/10/02 06:31:04;;;;;;;19.35;12.48;;;205.70;2252.80;;;;;;5006583;28;20062;-90
2021/10/02 06:34:03;;;;;;;22.25;15.82;;;230.40;2252.80;;;;;;5018058;28;20086;-87
2021/10/02 06:37:31;;;;;;;26.55;15.18;;;230.50;2252.80;;;;;;5005002;28;20042;-88
2021/10/02 06:40:56;;;;;;;20.73;12.75;;;230.70;2252.80;;;;;;4964000;28;20050;-88
2021/10/02 06:47:25;;;;;;;20.88;13.15;;;231.00;2252.80;;;;;;4907914;29;20065;-88
2021/10/02 06:50:07;;;;;;;20.52;12.48;;;231.10;2252.80;;;;;;4909227;29;20037;-89
2021/10/02 07:29:13;;;;;;;32.55;20.10;;;281.80;2278.40;;;;;;4900303;29;20059;-90
2021/10/02 07:32:50;;;;;;;23.00;16.45;;;282.00;2278.40;;;;;;4886025;29;20065;-90
2021/10/02 07:36:46;;;;;;;47.53;25.73;;;282.20;2278.40;;;;;;4917271;29;20036;-91
2021/10/02 07:40:22;;;;;;;;;;;;;;;;;;;;;
2021/10/02 07:43:08;;;;;;;56.13;31.85;;;282.50;2278.40;;;;;;4844147;29;20038;-89
2021/10/02 07:45:55;;;;;;;66.07;35.80;;;307.30;2304.00;;;;;;4843361;29;20521;-90
2021/10/02 07:49:03;;;;;;;49.22;29.63;;;307.40;2304.00;;;;;;4844187;29;20048;-90
2021/10/02 07:51:54;;;;;;;48.47;31.13;;;307.60;2304.00;;;;;;4837708;29;20042;-90
2021/10/02 07:55:22;;;;;;;31.33;20.25;;;307.20;2304.00;;;;;;4842166;29;20042;-88
2021/10/02 07:58:30;;;;;;;27.23;18.50;;;307.80;2304.00;;;;;;4825367;29;20039;-89
2021/10/02 08:02:10;;;;;;;25.83;15.75;;;308.10;2304.00;;;;;;4824973;29;20091;-89
2021/10/02 08:05:04;;;;;;;;;;;332.90;2329.60;;;;;;4859732;29;20033;-90
2021/10/02 08:08:41;;;;;;;24.08;16.20;;;333.00;2329.60;;;;;;4825285;29;19939;-91
2021/10/02 08:11:51;;;;;;;21.20;13.40;;;333.20;2329.60;;;;;;4824921;29;20038;-89
2021/10/02 08:14:34;;;;;;;20.00;11.35;;;333.40;2329.60;;;;;;4823766;29;20043;-91
2021/10/02 08:17:05;;;;;;;25.05;12.05;;;333.50;2329.60;;;;;;4876588;29;20048;-88
2021/10/02 08:19:33;;;;;;;14.30;11.98;;;333.60;2329.60;;;;;;4902720;29;20036;-89
2021/10/02 08:22:06;;;;;;;10.98;8.27;;;333.70;2329.60;;;;;;4917747;29;20087;-90
2021/10/02 08:25:01;;;;;;;15.15;8.68;;;358.50;2329.60;;;;;;4934025;28;20062;-89
2021/10/02 08:27:28;;;;;;;14.25;8.93;;;358.60;2329.60;;;;;;4960369;28;20031;-89
2021/10/02 08:29:56;;;;;;;18.77;8.32;;;358.70;2329.60;;;;;;4976610;28;20611;-89
2021/10/02 08:32:24;;;;;;;12.57;7.15;;;358.90;2329.60;;;;;;4976378;28;20030;-89
2021/10/02 08:34:50;;;;;;;11.82;6.80;;;359.10;2329.60;;;;;;4959946;28;20058;-88
2021/10/02 08:37:16;;;;;;;11.88;7.30;;;359.30;2329.60;;;;;;4975808;28;20117;-88
2021/10/02 08:39:42;;;;;;;9.50;6.63;;;384.00;2329.60;;;;;;4975650;28;20501;-87
2021/10/02 08:42:16;;;;;;;16.63;8.95;;;384.10;2329.60;;;;;;4973764;28;20037;-86
2021/10/02 08:44:43;;;;;;;10.50;6.82;;;384.30;2329.60;;;;;;4975822;28;20031;-87
2021/10/02 08:47:11;;;;;;;7.28;5.70;;;384.30;2329.60;;;;;;4974517;28;20023;-87
2021/10/02 08:49:38;;;;;;;13.00;6.25;;;384.40;2329.60;;;;;;4975096;28;20045;-86
2021/10/02 08:52:09;;;;;;;12.32;7.93;;;384.50;2329.60;;;;;;4974804;28;20030;-86
2021/10/02 08:54:38;;;;;;;15.40;7.75;;;384.70;2329.60;;;;;;4974507;28;20027;-87
2021/10/02 08:57:12;;;;;;;10.45;6.20;;;384.90;2329.60;;;;;;4963588;28;20117;-86
2021/10/02 08:59:39;;;;;;;12.68;8.10;;;409.60;2355.20;;;;;;4978232;28;20030;-87
2021/10/02 09:02:09;;;;;;;11.25;6.57;;;409.80;2355.20;;;;;;5002581;28;20210;-85
2021/10/02 09:04:36;;;;;;;12.65;6.82;;;409.80;2355.20;;;;;;5013892;28;20362;-86
2021/10/02 09:07:05;;;;;;;11.27;6.35;;;409.90;2355.20;;;;;;5010997;28;20029;-86
2021/10/02 09:09:33;;;;;;;13.63;6.93;;;410.20;2355.20;;;;;;4994499;28;20030;-90
2021/10/02 09:11:59;;;;;;;13.32;4.95;;;410.00;2355.20;;;;;;4994373;28;20101;-86
2021/10/02 09:14:25;;;;;;;9.85;5.70;;;410.00;2355.20;;;;;;4994379;28;20095;-88
2021/10/02 09:16:51;;;;;;;10.02;6.32;;;410.10;2355.20;;;;;;4993984;28;20482;-87
2021/10/02 09:19:16;;;;;;;11.13;6.50;;;410.00;2355.20;;;;;;4994119;28;20027;-86
2021/10/02 09:21:57;;;;;;;11.75;6.97;;;410.20;2355.20;;;;;;4994043;28;20038;-87
2021/10/02 09:24:26;;;;;;;14.10;7.07;;;410.30;2355.20;;;;;;4994395;28;20053;-85
2021/10/02 09:26:53;;;;;;;11.00;6.43;;;410.40;2355.20;;;;;;4993924;28;20058;-85
2021/10/02 09:29:56;;;;;;;14.02;6.85;;;410.50;2355.20;;;;;;4994172;28;20367;-86
2021/10/02 09:32:25;;;;;;;;;;;435.20;2355.20;;;;;;4993729;28;20034;-86
2021/10/02 09:34:57;;;;;;;13.13;6.55;;;435.30;2355.20;;;;;;4993817;28;19955;-87
2021/10/02 09:37:35;;;;;;;10.25;6.25;;;435.30;2355.20;;;;;;4994925;28;20058;-85
2021/10/02 09:40:10;;;;;;;10.57;5.95;;;435.30;2355.20;;;;;;4993511;28;20038;-86
2021/10/02 09:42:43;;;;;;;9.32;5.93;;;435.40;2355.20;;;;;;4993924;28;20029;-88
2021/10/02 09:45:16;;;;;;;10.52;6.95;;;435.40;2355.20;;;;;;4993621;28;20474;-86
2021/10/02 09:47:43;;;;;;;13.25;7.43;;;435.70;2355.20;;;;;;4993698;28;20118;-87
2021/10/02 09:50:11;;;;;;;11.73;7.63;;;435.70;2355.20;;;;;;4993634;28;20030;-87
2021/10/02 09:52:46;;;;;;;16.98;8.55;;;435.80;2355.20;;;;;;4993535;28;20466;-87
2021/10/02 09:55:27;;;;;;;12.88;8.10;;;436.00;2355.20;;;;;;4993844;28;20475;-86
2021/10/02 09:57:58;;;;;;;11.77;7.32;;;436.10;2355.20;;;;;;4992836;28;20069;-84
2021/10/02 10:00:27;;;;;;;18.48;7.78;;;461.10;2380.80;;;;;;4993508;28;20026;-85
2021/10/02 10:02:55;;;;;;;12.27;7.05;;;460.80;2380.80;;;;;;4993432;28;20046;-84
2021/10/02 10:05:27;;;;;;;11.70;6.30;;;460.80;2380.80;;;;;;4993626;28;20030;-86
2021/10/02 10:07:56;;;;;;;9.48;5.93;;;461.00;2380.80;;;;;;4993668;28;20034;-85
2021/10/02 10:10:23;;;;;;;11.15;6.57;;;461.00;2355.20;;;;;;4993912;28;20030;-86
2021/10/02 10:12:49;;;;;;;9.52;5.90;;;461.10;2355.20;;;;;;4994327;28;20030;-86
2021/10/02 10:15:31;;;;;;;13.52;7.68;;;461.10;2355.20;;;;;;4993701;28;20029;-84
2021/10/02 10:17:58;;;;;;;11.15;7.53;;;461.20;2329.60;;;;;;4994854;28;20030;-87
2021/10/02 10:20:47;;;;;;;15.30;9.43;;;461.40;2329.60;;;;;;4994061;28;20035;-88
2021/10/02 10:23:13;;;;;;;12.38;7.30;;;461.40;2329.60;;;;;;4995052;28;20026;-87
2021/10/02 10:26:06;;;;;;;11.05;7.35;;;461.30;2304.00;;;;;;4998201;28;20038;-87
2021/10/02 10:28:35;;;;;;;10.60;6.07;;;461.60;2278.40;;;;;;4991618;28;20049;-85
2021/10/02 10:31:11;;;;;;;13.50;5.90;;;461.70;2252.80;;;;;;4994992;28;20038;-89
2021/10/02 10:33:39;;;;;;;9.60;6.63;;;486.40;2227.20;;;;;;4977647;28;20034;-88
2021/10/02 10:36:06;;;;;;;8.95;6.18;;;486.40;2252.80;;;;;;4993692;28;20026;-87
2021/10/02 10:38:35;;;;;;;8.73;6.13;;;486.60;2201.60;;;;;;4993439;28;20038;-87
2021/10/02 10:41:03;;;;;;;14.73;10.20;;;486.60;2201.60;;;;;;4994832;28;20033;-86
2021/10/02 10:43:33;;;;;;;9.60;6.05;;;486.60;2201.60;;;;;;4993856;28;20026;-86
2021/10/02 10:46:02;;;;;;;12.68;7.43;;;486.90;2176.00;;;;;;4995972;28;20034;-86
2021/10/02 10:48:29;;;;;;;12.90;7.65;;;487.10;2150.40;;;;;;4994263;28;20084;-87
2021/10/02 10:51:09;;;;;;;13.40;7.85;;;487.30;2099.20;;;;;;4994550;28;20061;-88
2021/10/02 10:53:47;;;;;;;13.45;9.35;;;512.10;2073.60;;;;;;4994766;28;20434;-87
2021/10/02 10:56:15;;;;;;;9.07;6.55;;;512.30;2073.60;;;;;;4994160;28;20030;-88
2021/10/02 10:58:41;;;;;;;10.50;5.70;;;512.40;2022.40;;;;;;4995261;28;20033;-90
2021/10/02 11:01:09;;;;;;;10.80;7.70;;;512.50;1996.80;;;;;;4993999;28;20058;-86
2021/10/02 11:03:44;;;;;;;9.48;6.68;;;512.90;2022.40;;;;;;4993668;28;20098;-87
2021/10/02 11:06:14;;;;;;;11.23;6.80;;;537.70;1996.80;;;;;;4993662;28;20030;-87
2021/10/02 11:08:52;;;;;;;12.10;5.85;;;538.00;1996.80;;;;;;4993731;28;20022;-87
2021/10/02 11:11:37;;;;;;;8.93;5.40;;;538.30;1945.60;;;;;;4980832;28;20058;-88
2021/10/02 11:14:04;;;;;;;9.13;5.25;;;538.50;1894.40;;;;;;4996778;28;20041;-88
2021/10/02 11:16:35;;;;;;;14.15;9.95;;;563.20;1920.00;;;;;;4996798;28;20113;-85
2021/10/02 11:19:02;;;;;;;13.32;8.40;;;563.30;1868.80;;;;;;4996608;28;20031;-85
2021/10/02 11:21:31;;;;;;;8.10;5.15;;;563.50;1843.20;;;;;;4996353;28;20105;-86
2021/10/02 11:24:03;;;;;;;8.05;5.90;;;563.60;1792.00;;;;;;4996587;28;20034;-86
2021/10/02 11:26:49;;;;;;;11.67;6.70;;;563.90;1792.00;;;;;;4980252;28;20594;-85
2021/10/02 11:29:36;;;;;;;16.92;10.15;;;588.90;1766.40;;;;;;4996392;28;20041;-85
2021/10/02 11:32:19;;;;;;;11.05;6.18;;;589.20;1766.40;;;;;;4996357;28;20033;-86
2021/10/02 11:35:22;;;;;;;9.25;5.22;;;589.50;1715.20;;;;;;4980266;28;20028;-85
2021/10/02 11:37:58;;;;;;;;;;;589.60;1689.60;;;;;;4980742;28;20035;-86
2021/10/02 11:40:36;;;;;;;7.97;4.95;;;614.50;1689.60;;;;;;4996243;28;19906;-83
2021/10/02 11:43:14;;;;;;;10.23;5.60;;;589.70;1664.00;;;;;;4980076;28;20018;-85
2021/10/02 11:45:46;;;;;;;16.77;8.40;;;614.60;1664.00;;;;;;4980305;28;20076;-85
2021/10/02 11:48:32;;;;;;;12.15;7.40;;;614.90;1638.40;;;;;;4980157;28;20037;-84
2021/10/02 11:51:24;;;;;;;12.15;6.63;;;615.10;1638.40;;;;;;4996131;28;20034;-85
2021/10/02 11:53:51;;;;;;;11.02;6.60;;;615.30;1612.80;;;;;;4995796;28;20030;-83
2021/10/02 11:56:21;;;;;;;9.50;5.57;;;640.10;1612.80;;;;;;4979783;28;20470;-85
2021/10/02 11:58:49;;;;;;;14.40;6.50;;;640.10;1561.60;;;;;;4995848;28;20127;-84
2021/10/02 12:01:20;;;;;;;8.40;6.10;;;640.10;1561.60;;;;;;4995670;28;20033;-84
2021/10/02 12:03:47;;;;;;;7.30;5.25;;;640.40;1561.60;;;;;;4996116;28;20041;-84
2021/10/02 12:06:19;;;;;;;8.73;5.90;;;640.40;1536.00;;;;;;4997191;28;20042;-85
2021/10/02 12:09:09;;;;;;;12.45;8.52;;;640.50;1561.60;;;;;;4997001;28;20030;-85
2021/10/02 12:11:43;;;;;;;9.95;7.18;;;640.50;1510.40;;;;;;4995602;28;20410;-85
2021/10/02 12:14:24;;;;;;;13.30;8.98;;;640.60;1510.40;;;;;;4994917;28;20466;-83
2021/10/02 12:16:52;;;;;;;11.95;8.82;;;640.70;1510.40;;;;;;4995023;28;20073;-85
2021/10/02 12:19:21;;;;;;;10.98;7.78;;;665.60;1510.40;;;;;;4979273;28;20110;-85
2021/10/02 12:22:02;;;;;;;16.67;8.38;;;640.90;1510.40;;;;;;4994624;28;20118;-85
2021/10/02 12:24:39;;;;;;;12.30;7.50;;;665.70;1510.40;;;;;;4995639;28;20042;-87
2021/10/02 12:27:15;;;;;;;12.27;7.65;;;665.60;1510.40;;;;;;4995677;28;20061;-84
2021/10/02 12:29:51;;;;;;;8.38;6.13;;;665.70;1484.80;;;;;;4995582;28;20061;-84
2021/10/02 12:32:19;;;;;;;10.02;6.53;;;665.70;1484.80;;;;;;4995510;28;20031;-84
2021/10/02 12:34:47;;;;;;;12.18;8.50;;;665.70;1484.80;;;;;;4995219;28;20422;-84
2021/10/02 12:37:19;;;;;;;8.77;6.22;;;665.90;1510.40;;;;;;4995012;28;20478;-85
2021/10/02 12:39:57;;;;;;;16.17;8.95;;;665.90;1510.40;;;;;;4995010;28;20398;-82
2021/10/02 12:42:41;;;;;;;14.80;10.60;;;665.70;1484.80;;;;;;4994656;28;20034;-82
2021/10/02 12:45:10;;;;;;;16.73;9.95;;;666.20;1510.40;;;;;;4978431;28;20026;-84
2021/10/02 12:47:37;;;;;;;11.75;6.65;;;666.20;1484.80;;;;;;4994778;28;20410;-84
2021/10/02 12:50:09;;;;;;;10.63;7.53;;;666.10;1433.60;;;;;;4995882;28;20109;-85
2021/10/02 12:52:35;;;;;;;14.97;7.83;;;666.00;1459.20;;;;;;4995106;28;20077;-85
2021/10/02 12:55:09;;;;;;;13.43;7.68;;;691.60;1459.20;;;;;;4994994;28;20034;-85
2021/10/02 12:57:35;;;;;;;11.52;7.97;;;666.10;1459.20;;;;;;4994866;28;20034;-87
2021/10/02 13:00:07;;;;;;;9.73;6.50;;;666.20;1484.80;;;;;;4994852;28;20076;-84
2021/10/02 13:02:39;;;;;;;11.82;8.05;;;666.10;1459.20;;;;;;4978153;28;20051;-85
2021/10/02 13:05:06;;;;;;;7.80;5.15;;;666.50;1459.20;;;;;;4994796;28;20081;-85
2021/10/02 13:07:35;;;;;;;10.40;4.55;;;666.50;1459.20;;;;;;4994650;28;20125;-85
2021/10/02 13:10:08;;;;;;;10.80;4.78;;;666.20;1459.20;;;;;;4994517;28;20054;-84
2021/10/02 13:12:37;;;;;;;10.75;5.85;;;666.20;1459.20;;;;;;4994806;28;20026;-85
2021/10/02 13:15:09;;;;;;;10.80;5.93;;;666.20;1459.20;;;;;;4994489;28;20493;-85
2021/10/02 13:17:35;;;;;;;10.88;7.18;;;666.20;1459.20;;;;;;4994493;28;20069;-85
2021/10/02 13:20:10;;;;;;;15.15;10.63;;;666.30;1459.20;;;;;;4994614;28;20034;-86
2021/10/02 13:22:45;;;;;;;17.30;8.98;;;666.50;1433.60;;;;;;4994745;28;20023;-84
2021/10/02 13:25:22;;;;;;;11.50;6.78;;;666.20;1459.20;;;;;;4994426;28;20030;-85
2021/10/02 13:27:51;;;;;;;12.55;6.63;;;666.10;1459.20;;;;;;4994665;28;20137;-85
2021/10/02 13:30:35;;;;;;;9.93;5.90;;;666.30;1433.60;;;;;;4994239;28;20419;-88
2021/10/02 13:33:07;;;;;;;12.35;8.93;;;666.50;1459.20;;;;;;4994241;28;20500;-87
2021/10/02 13:35:39;;;;;;;11.48;7.25;;;666.30;1433.60;;;;;;4994160;28;20462;-86
2021/10/02 13:38:07;;;;;;;14.07;6.93;;;666.50;1433.60;;;;;;4994048;28;20129;-87
2021/10/02 13:40:46;;;;;;;10.77;6.40;;;666.20;1433.60;;;;;;4993915;28;20260;-84
2021/10/02 13:43:13;;;;;;;10.73;6.75;;;666.20;1433.60;;;;;;4993774;28;20022;-84
2021/10/02 13:45:44;;;;;;;10.82;8.02;;;666.20;1433.60;;;;;;4993854;28;20053;-85
2021/10/02 13:48:15;;;;;;;9.70;5.50;;;666.10;1433.60;;;;;;4993888;28;20030;-84
2021/10/02 13:50:44;;;;;;;13.57;8.43;;;666.10;1459.20;;;;;;4993969;28;20041;-86
2021/10/02 13:53:10;;;;;;;12.63;6.38;;;665.70;1433.60;;;;;;4993862;28;20022;-85
2021/10/02 13:55:36;;;;;;;9.38;5.10;;;640.70;1408.00;;;;;;4993806;28;20026;-84
2021/10/02 13:58:05;;;;;;;12.73;6.20;;;665.60;1459.20;;;;;;4993811;28;20045;-85
2021/10/02 14:00:32;;;;;;;11.07;6.20;;;665.70;1433.60;;;;;;4993760;28;20034;-86
2021/10/02 14:02:58;;;;;;;10.15;6.55;;;665.60;1459.20;;;;;;4993583;28;20050;-87
2021/10/02 14:05:25;;;;;;;11.95;7.00;;;640.90;1433.60;;;;;;4993727;28;20034;-84
2021/10/02 14:07:52;;;;;;;15.23;7.28;;;640.50;1433.60;;;;;;4993742;28;20026;-84
2021/10/02 14:10:19;;;;;;;8.63;5.15;;;640.50;1433.60;;;;;;4994145;28;20018;-84
2021/10/02 14:12:45;;;;;;;12.10;6.20;;;640.20;1433.60;;;;;;4993564;28;20026;-85
2021/10/02 14:15:12;;;;;;;10.35;6.05;;;640.10;1459.20;;;;;;4993572;28;20022;-86
2021/10/02 14:17:39;;;;;;;9.48;6.03;;;615.10;1459.20;;;;;;4993791;28;20066;-83
2021/10/02 14:20:07;;;;;;;13.73;6.30;;;614.70;1459.20;;;;;;4993501;28;20428;-86
2021/10/02 14:22:33;;;;;;;8.32;4.80;;;614.50;1510.40;;;;;;4993237;28;20145;-85
2021/10/02 14:24:59;;;;;;;8.65;4.35;;;589.70;1510.40;;;;;;4994107;28;20046;-82
2021/10/02 14:27:25;;;;;;;8.45;4.72;;;589.60;1510.40;;;;;;4993391;28;20027;-83
2021/10/02 14:29:51;;;;;;;9.25;5.85;;;589.40;1510.40;;;;;;4993331;28;20080;-83
2021/10/02 14:32:17;;;;;;;7.90;5.20;;;589.40;1536.00;;;;;;4993678;28;20117;-82
2021/10/02 14:34:46;;;;;;;9.02;4.43;;;589.10;1587.20;;;;;;4993194;28;20031;-81
2021/10/02 14:37:13;;;;;;;8.73;4.72;;;589.00;1561.60;;;;;;4993542;28;20421;-82
2021/10/02 14:39:41;;;;;;;13.98;7.68;;;588.90;1561.60;;;;;;4993747;28;20022;-83
2021/10/02 14:42:07;;;;;;;10.48;6.68;;;588.90;1587.20;;;;;;4993154;28;20030;-80
2021/10/02 14:44:33;;;;;;;8.50;5.18;;;564.10;1561.60;;;;;;4995094;28;20374;-86
2021/10/02 14:47:19;;;;;;;8.95;4.70;;;564.00;1561.60;;;;;;4996848;28;20072;-83
2021/10/02 14:49:46;;;;;;;10.68;5.47;;;563.80;1587.20;;;;;;4997240;28;20027;-80
2021/10/02 14:52:12;;;;;;;8.45;4.95;;;563.70;1612.80;;;;;;4996956;28;20458;-84
2021/10/02 14:54:40;;;;;;;7.28;4.65;;;563.60;1612.80;;;;;;4997749;28;20610;-81
2021/10/02 14:57:07;;;;;;;10.63;5.07;;;563.60;1612.80;;;;;;4996981;28;20034;-83
2021/10/02 14:59:34;;;;;;;9.38;6.05;;;563.60;1587.20;;;;;;4996925;28;20033;-81
2021/10/02 15:02:05;;;;;;;7.18;4.38;;;563.70;1612.80;;;;;;4998100;28;20097;-84
2021/10/02 15:04:35;;;;;;;7.72;4.80;;;563.50;1638.40;;;;;;4997087;28;20030;-84
2021/10/02 15:07:03;;;;;;;11.80;5.63;;;563.40;1638.40;;;;;;4998244;28;20030;-85
2021/10/02 15:14:15;;;;;;;10.70;6.37;;;563.20;1664.00;;;;;;4937628;29;20055;-87
2021/10/02 15:16:44;;;;;;;18.15;6.60;;;538.50;1664.00;;;;;;4981095;28;20085;-87
2021/10/02 15:19:15;;;;;;;11.98;5.28;;;538.40;1689.60;;;;;;4997275;28;20068;-87
2021/10/02 15:22:17;;;;;;;13.07;5.78;;;538.20;1740.80;;;;;;4997550;28;20058;-88
2021/10/02 15:24:50;;;;;;;18.25;7.03;;;538.10;1766.40;;;;;;4984755;28;20026;-85
2021/10/02 15:27:25;;;;;;;12.25;6.75;;;537.90;1792.00;;;;;;5003680;28;20524;-87
2021/10/02 15:29:54;;;;;;;9.75;7.53;;;537.80;1792.00;;;;;;4997189;28;20029;-90
2021/10/02 15:32:21;;;;;;;21.63;11.43;;;537.70;1792.00;;;;;;4996684;28;20028;-87
2021/10/02 15:34:47;;;;;;;24.25;13.05;;;538.10;1792.00;;;;;;4996732;28;20033;-86
2021/10/02 15:37:13;;;;;;;26.55;12.85;;;512.90;1792.00;;;;;;4996754;28;20034;-89
2021/10/02 15:39:39;;;;;;;27.73;12.15;;;512.80;1792.00;;;;;;4997021;28;20030;-86
2021/10/02 15:42:07;;;;;;;22.50;11.98;;;512.60;1792.00;;;;;;4996449;28;20026;-84
2021/10/02 15:44:35;;;;;;;29.85;16.02;;;512.50;1792.00;;;;;;4996467;28;20026;-87
2021/10/02 15:47:04;;;;;;;31.65;16.77;;;512.40;1817.60;;;;;;4997556;28;20112;-87
2021/10/02 15:49:39;;;;;;;27.05;19.08;;;512.30;1843.20;;;;;;4996722;28;20018;-85
2021/10/02 15:52:13;;;;;;;23.60;13.15;;;512.10;1817.60;;;;;;4996772;28;20477;-87
2021/10/02 15:54:41;;;;;;;19.13;12.40;;;512.10;1817.60;;;;;;5002775;28;20057;-85
2021/10/02 15:57:10;;;;;;;18.20;12.18;;;486.90;1817.60;;;;;;5001306;28;20058;-86
2021/10/02 15:59:47;;;;;;;19.63;14.38;;;512.00;1817.60;;;;;;5000104;28;20084;-84
2021/10/02 16:02:42;;;;;;;18.40;12.88;;;512.10;1817.60;;;;;;4996303;28;20053;-86
2021/10/02 16:05:17;;;;;;;17.45;13.10;;;487.00;1817.60;;;;;;4968192;28;20042;-85
2021/10/02 16:07:44;;;;;;;18.85;14.38;;;487.30;1817.60;;;;;;4996386;28;20027;-91
2021/10/02 16:10:14;;;;;;;17.02;12.63;;;487.20;1843.20;;;;;;4996243;28;20052;-86
2021/10/02 16:12:42;;;;;;;17.65;11.15;;;487.20;1843.20;;;;;;4996041;28;20030;-85
2021/10/02 16:15:10;;;;;;;15.15;11.05;;;487.00;1868.80;;;;;;4995818;28;20026;-88
2021/10/02 16:17:41;;;;;;;17.10;11.48;;;487.00;1868.80;;;;;;4995864;28;20034;-87
2021/10/02 16:20:07;;;;;;;16.20;10.80;;;487.00;1868.80;;;;;;4997234;28;20026;-87
2021/10/02 16:22:33;;;;;;;18.38;10.02;;;486.90;1868.80;;;;;;4996170;28;20496;-86
2021/10/02 16:24:59;;;;;;;19.10;10.48;;;486.90;1868.80;;;;;;4995751;28;20470;-87
2021/10/02 16:27:27;;;;;;;17.33;10.90;;;486.80;1868.80;;;;;;4995299;28;20030;-86
2021/10/02 16:29:54;;;;;;;19.27;12.90;;;486.70;1868.80;;;;;;4979844;28;20026;-87
2021/10/02 16:32:21;;;;;;;24.05;14.63;;;486.70;1894.40;;;;;;4995125;28;20026;-87
2021/10/02 16:34:47;;;;;;;21.70;15.38;;;486.70;1894.40;;;;;;4995656;28;20027;-84
2021/10/02 16:37:13;;;;;;;19.05;14.13;;;486.60;1894.40;;;;;;4996682;28;20089;-86
2021/10/02 16:39:40;;;;;;;24.13;16.77;;;486.50;1894.40;;;;;;4995438;28;20351;-88
2021/10/02 16:42:06;;;;;;;25.88;18.52;;;461.70;1920.00;;;;;;4996849;28;20026;-87
2021/10/02 16:44:32;;;;;;;26.98;20.65;;;461.60;1945.60;;;;;;4995331;28;20077;-84
2021/10/02 16:46:59;;;;;;;23.20;19.10;;;461.50;1945.60;;;;;;4995077;28;20149;-85
2021/10/02 16:49:25;;;;;;;24.58;16.08;;;461.50;1945.60;;;;;;4995335;28;20437;-85
2021/10/02 16:51:51;;;;;;;27.65;23.80;;;461.40;1971.20;;;;;;4995017;28;20050;-85
2021/10/02 16:54:17;;;;;;;29.75;23.30;;;461.20;1945.60;;;;;;4994713;28;20031;-85
2021/10/02 16:56:43;;;;;;;30.13;24.13;;;461.00;1971.20;;;;;;4994759;28;20043;-83
2021/10/02 16:59:08;;;;;;;28.58;21.95;;;461.00;1945.60;;;;;;4994644;28;20023;-84
2021/10/02 17:01:34;;;;;;;25.25;14.35;;;461.10;1971.20;;;;;;4994115;28;20042;-85
2021/10/02 17:04:00;;;;;;;14.43;10.57;;;461.10;1971.20;;;;;;4994868;28;20033;-84
2021/10/02 17:06:28;;;;;;;15.45;10.18;;;461.00;1971.20;;;;;;4994559;28;20034;-84
2021/10/02 17:08:55;;;;;;;60.60;43.10;;;461.10;1945.60;;;;;;4994400;28;20041;-83
2021/10/02 17:11:22;;;;;;;20.85;14.98;;;460.90;1945.60;;;;;;4994938;28;20041;-85
2021/10/02 17:13:49;;;;;;;16.30;11.23;;;460.90;1971.20;;;;;;4978534;28;20030;-83
2021/10/02 17:16:15;;;;;;;12.88;8.90;;;460.90;1996.80;;;;;;4994508;28;20018;-83
2021/10/02 17:18:41;;;;;;;15.73;9.13;;;460.80;1996.80;;;;;;4993612;28;20050;-83
2021/10/02 17:21:07;;;;;;;13.15;8.02;;;460.80;2022.40;;;;;;4993887;28;20234;-85
2021/10/02 17:23:35;;;;;;;15.45;10.05;;;436.10;1996.80;;;;;;4991575;28;20054;-84
2021/10/02 17:26:04;;;;;;;18.15;8.13;;;435.90;2022.40;;;;;;4995207;28;20120;-84